createdAt,value
2018-11-01T00:02:56.206Z,21.82
2018-11-01T00:07:59.795Z,21.82
2018-11-01T00:13:03.537Z,21.83
2018-11-01T00:18:07.107Z,21.84
2018-11-01T00:23:10.750Z,21.85
2018-11-01T00:28:14.355Z,21.83
2018-11-01T00:33:17.894Z,21.85
2018-11-01T00:38:21.426Z,21.85
2018-11-01T00:43:25.171Z,21.85
2018-11-01T00:48:28.885Z,21.86
2018-11-01T00:53:32.424Z,21.88
2018-11-01T00:58:36.074Z,21.87
2018-11-01T01:03:39.636Z,21.87
2018-11-01T01:08:43.285Z,21.87
2018-11-01T01:13:46.785Z,21.87
2018-11-01T01:18:50.370Z,21.88
2018-11-01T01:23:53.978Z,21.88
2018-11-01T01:28:57.542Z,21.88
2018-11-01T01:34:02.168Z,21.86
2018-11-01T01:39:08.354Z,21.87
2018-11-01T01:44:12.359Z,21.87
2018-11-01T01:49:16.042Z,21.84
2018-11-01T01:54:19.815Z,21.86
2018-11-01T01:59:23.578Z,21.86
2018-11-01T02:04:27.139Z,21.85
2018-11-01T02:09:30.781Z,21.85
2018-11-01T02:14:34.372Z,21.85
2018-11-01T02:19:38.062Z,21.83
2018-11-01T02:24:41.640Z,21.84
2018-11-01T02:29:45.490Z,21.82
2018-11-01T02:34:49.117Z,21.81
2018-11-01T02:39:52.722Z,21.82
2018-11-01T02:44:56.316Z,21.82
2018-11-01T02:49:59.858Z,21.81
2018-11-01T02:55:04.261Z,21.82
2018-11-01T03:00:10.220Z,21.81
2018-11-01T03:05:14.332Z,21.81
2018-11-01T03:10:17.899Z,21.79
2018-11-01T03:15:21.407Z,21.76
2018-11-01T03:20:24.903Z,21.73
2018-11-01T03:25:28.462Z,21.65
2018-11-01T03:30:31.964Z,21.62
2018-11-01T03:35:35.492Z,21.58
2018-11-01T03:40:39.027Z,21.54
2018-11-01T03:45:42.681Z,21.51
2018-11-01T03:50:46.132Z,21.47
2018-11-01T03:55:49.634Z,21.45
2018-11-01T04:00:53.146Z,21.44
2018-11-01T04:05:56.674Z,21.42
2018-11-01T04:11:00.211Z,21.41
2018-11-01T04:16:03.731Z,21.37
2018-11-01T04:21:07.250Z,21.35
2018-11-01T04:26:10.836Z,21.33
2018-11-01T04:31:14.356Z,21.29
2018-11-01T04:36:17.849Z,21.27
2018-11-01T04:41:21.317Z,21.25
2018-11-01T04:46:25.009Z,21.21
2018-11-01T04:51:28.449Z,21.20
2018-11-01T04:56:31.942Z,21.17
2018-11-01T05:01:35.420Z,21.14
2018-11-01T05:06:38.879Z,21.13
2018-11-01T05:11:42.393Z,21.09
2018-11-01T05:16:45.857Z,21.09
2018-11-01T05:21:49.316Z,21.06
2018-11-01T05:26:52.835Z,21.04
2018-11-01T05:31:56.298Z,21.02
2018-11-01T05:36:59.765Z,21.01
2018-11-01T05:42:03.257Z,21.00
2018-11-01T05:47:06.750Z,20.98
2018-11-01T05:52:10.254Z,20.97
2018-11-01T05:57:13.932Z,20.96
2018-11-01T06:02:21.960Z,20.94
2018-11-01T06:07:29.545Z,20.92
2018-11-01T06:12:33.199Z,20.92
2018-11-01T06:17:36.588Z,20.91
2018-11-01T06:22:40.239Z,20.90
2018-11-01T06:27:43.775Z,20.89
2018-11-01T06:32:53.966Z,20.84
2018-11-01T06:37:57.462Z,20.84
2018-11-01T06:43:00.914Z,20.86
2018-11-01T06:48:04.340Z,20.86
2018-11-01T06:53:07.802Z,20.81
2018-11-01T06:58:11.330Z,20.75
2018-11-01T07:03:14.900Z,20.70
2018-11-01T07:08:18.506Z,20.68
2018-11-01T07:13:22.013Z,20.66
2018-11-01T07:18:25.607Z,20.65
2018-11-01T07:23:29.084Z,20.63
2018-11-01T07:28:32.631Z,20.60
2018-11-01T07:33:36.701Z,20.60
2018-11-01T07:38:40.150Z,20.58
2018-11-01T07:43:43.672Z,20.57
2018-11-01T07:48:47.259Z,15.94
2018-11-01T07:53:51.165Z,14.89
2018-11-01T07:58:54.634Z,14.72
2018-11-01T08:03:58.326Z,17.56
2018-11-01T08:09:03.078Z,18.68
2018-11-01T08:14:06.854Z,19.53
2018-11-01T08:19:10.298Z,20.20
2018-11-01T08:24:13.781Z,20.37
2018-11-01T08:29:17.252Z,20.43
2018-11-01T08:34:20.735Z,20.51
2018-11-01T08:39:24.247Z,20.63
2018-11-01T08:44:27.715Z,20.67
2018-11-01T08:49:31.250Z,20.62
2018-11-01T08:54:34.731Z,20.64
2018-11-01T09:27:46.803Z,20.58
2018-11-01T09:32:50.253Z,20.60
2018-11-01T09:37:53.727Z,20.65
2018-11-01T09:42:57.254Z,20.62
2018-11-01T09:48:00.730Z,20.75
2018-11-01T09:53:04.209Z,20.80
2018-11-01T09:58:07.704Z,20.68
2018-11-01T10:03:11.167Z,20.66
2018-11-01T10:08:14.759Z,20.63
2018-11-01T10:13:18.271Z,20.08
2018-11-01T10:18:22.205Z,20.41
2018-11-01T10:23:25.228Z,20.62
2018-11-01T10:28:28.683Z,20.60
2018-11-01T10:33:32.174Z,20.60
2018-11-01T10:38:35.626Z,20.63
2018-11-01T10:43:39.395Z,20.60
2018-11-01T10:48:42.908Z,20.58
2018-11-01T10:53:46.382Z,20.58
2018-11-01T10:58:49.853Z,20.54
2018-11-01T11:03:53.426Z,20.52
2018-11-01T11:08:56.912Z,20.55
2018-11-01T11:14:00.352Z,20.55
2018-11-01T11:19:03.815Z,20.52
2018-11-01T11:24:07.273Z,20.55
2018-11-01T11:29:10.916Z,20.55
2018-11-01T11:34:14.375Z,20.55
2018-11-01T11:39:18.046Z,20.62
2018-11-01T11:44:21.313Z,20.60
2018-11-01T11:49:24.794Z,20.65
2018-11-01T11:54:28.246Z,20.72
2018-11-01T11:59:31.710Z,20.67
2018-11-01T12:04:35.406Z,20.64
2018-11-01T12:09:38.911Z,20.60
2018-11-01T12:14:42.369Z,20.63
2018-11-01T12:19:45.840Z,20.71
2018-11-01T12:24:49.310Z,20.66
2018-11-01T12:29:52.745Z,20.67
2018-11-01T12:34:56.284Z,20.70
2018-11-01T12:39:59.775Z,20.72
2018-11-01T12:45:03.493Z,20.71
2018-11-01T12:50:09.156Z,20.71
2018-11-01T12:55:12.560Z,20.74
2018-11-01T13:00:16.023Z,20.78
2018-11-01T13:05:19.479Z,20.75
2018-11-01T13:10:22.944Z,20.75
2018-11-01T13:15:26.419Z,20.77
2018-11-01T13:20:30.158Z,20.71
2018-11-01T13:25:33.638Z,20.69
2018-11-01T13:30:37.099Z,20.66
2018-11-01T13:35:40.537Z,20.66
2018-11-01T13:40:44.904Z,20.63
2018-11-01T13:45:48.207Z,20.62
2018-11-01T13:50:51.683Z,20.60
2018-11-01T13:55:55.195Z,20.64
2018-11-01T14:00:58.724Z,20.64
2018-11-01T14:06:02.424Z,20.64
2018-11-01T14:11:06.384Z,20.70
2018-11-01T14:16:09.806Z,20.64
2018-11-01T14:21:13.378Z,20.67
2018-11-01T14:26:17.043Z,20.65
2018-11-01T14:31:20.516Z,20.62
2018-11-01T14:36:24.012Z,20.65
2018-11-01T14:41:27.453Z,20.68
2018-11-01T14:46:30.942Z,20.69
2018-11-01T14:51:34.392Z,20.71
2018-11-01T14:56:39.288Z,20.73
2018-11-01T15:01:41.404Z,20.73
2018-11-01T15:06:44.998Z,20.72
2018-11-01T15:11:48.329Z,20.74
2018-11-01T15:16:51.792Z,20.71
2018-11-01T15:21:55.283Z,20.70
2018-11-01T15:26:58.738Z,20.67
2018-11-01T15:32:02.705Z,20.64
2018-11-01T15:37:06.178Z,20.64
2018-11-01T15:42:09.693Z,20.64
2018-11-01T15:47:13.360Z,20.62
2018-11-01T15:52:17.367Z,20.66
2018-11-01T15:57:20.826Z,20.63
2018-11-01T16:02:24.922Z,20.64
2018-11-01T16:07:28.460Z,20.67
2018-11-01T16:12:31.976Z,20.72
2018-11-01T16:17:35.675Z,20.76
2018-11-01T16:22:39.919Z,20.81
2018-11-01T16:27:43.408Z,20.84
2018-11-01T16:32:46.927Z,20.89
2018-11-01T16:37:50.381Z,20.98
2018-11-01T16:42:53.951Z,21.00
2018-11-01T16:47:57.342Z,21.02
2018-11-01T16:53:00.814Z,21.05
2018-11-01T16:58:04.274Z,21.38
2018-11-01T17:03:07.718Z,21.98
2018-11-01T17:08:11.187Z,22.19
2018-11-01T17:13:35.107Z,22.63
2018-11-01T17:18:38.597Z,22.41
2018-11-01T17:23:42.089Z,22.63
2018-11-01T17:28:45.627Z,22.45
2018-11-01T17:33:49.183Z,22.30
2018-11-01T17:38:52.698Z,22.31
2018-11-01T17:43:56.285Z,22.22
2018-11-01T17:48:59.692Z,22.17
2018-11-01T17:54:03.358Z,22.21
2018-11-01T17:59:06.845Z,22.13
2018-11-01T18:04:13.601Z,22.36
2018-11-01T18:09:17.130Z,22.13
2018-11-01T18:14:20.659Z,22.13
2018-11-01T18:19:24.088Z,22.23
2018-11-01T18:24:39.374Z,22.43
2018-11-01T18:29:43.074Z,22.42
2018-11-01T18:34:53.920Z,22.41
2018-11-01T18:39:57.406Z,22.37
2018-11-01T18:45:00.920Z,22.31
2018-11-01T18:50:06.139Z,22.26
2018-11-01T18:55:11.298Z,22.28
2018-11-01T19:00:16.739Z,22.28
2018-11-01T19:05:20.141Z,22.23
2018-11-01T19:10:23.616Z,22.32
2018-11-01T19:15:27.072Z,22.39
2018-11-01T19:20:30.565Z,22.50
2018-11-01T19:25:34.155Z,22.48
2018-11-01T19:30:37.604Z,22.52
2018-11-01T19:35:41.096Z,22.44
2018-11-01T19:40:44.686Z,22.36
2018-11-01T19:45:48.398Z,22.31
2018-11-01T19:50:51.873Z,22.30
2018-11-01T19:55:55.378Z,22.31
2018-11-01T20:00:58.941Z,22.31
2018-11-01T20:06:03.396Z,22.28
2018-11-01T20:11:07.205Z,22.33
2018-11-01T20:16:10.824Z,22.35
2018-11-01T20:21:14.369Z,22.34
2018-11-01T20:26:17.870Z,22.31
2018-11-01T20:31:21.490Z,22.28
2018-11-01T20:36:25.010Z,22.27
2018-11-01T20:41:28.553Z,22.26
2018-11-01T20:46:32.363Z,22.22
2018-11-01T20:51:36.266Z,22.17
2018-11-01T20:56:39.792Z,22.21
2018-11-01T21:01:43.366Z,22.12
2018-11-01T21:06:46.911Z,22.14
2018-11-01T21:11:50.625Z,22.14
2018-11-01T21:16:53.974Z,22.11
2018-11-01T21:21:57.520Z,22.12
2018-11-01T21:27:01.046Z,22.10
2018-11-01T21:32:04.631Z,22.08
2018-11-01T21:37:08.307Z,22.07
2018-11-01T21:42:12.196Z,22.08
2018-11-01T21:47:15.758Z,22.06
2018-11-01T21:52:19.243Z,22.04
2018-11-01T21:57:23.076Z,22.03
2018-11-01T22:02:26.573Z,22.04
2018-11-01T22:07:30.109Z,22.02
2018-11-01T22:12:33.580Z,22.01
2018-11-01T22:17:37.269Z,22.05
2018-11-01T22:22:40.830Z,22.02
2018-11-01T22:27:44.399Z,22.01
2018-11-01T22:32:47.937Z,21.99
2018-11-01T22:37:51.693Z,22.00
2018-11-01T22:42:55.166Z,22.05
2018-11-01T22:47:58.902Z,22.02
2018-11-01T22:53:02.517Z,21.97
2018-11-01T22:58:06.239Z,21.97
2018-11-01T23:03:09.761Z,21.96
2018-11-01T23:08:13.256Z,21.95
2018-11-01T23:13:16.831Z,21.94
2018-11-01T23:18:20.345Z,21.94
2018-11-01T23:23:23.880Z,21.92
2018-11-01T23:28:27.428Z,21.92
2018-11-01T23:33:31.016Z,21.91
2018-11-01T23:38:39.960Z,21.90
2018-11-01T23:43:48.672Z,21.91
2018-11-01T23:48:59.819Z,21.91
2018-11-01T23:54:03.466Z,21.89
2018-11-01T23:59:07.013Z,21.89
